Terminal Aerodrome Forecast
Issued by NWS Wilmington, OH

Current Version | Previous Version | Graphics & Text | Print | Product List | Glossary On
Versions: 1 2 3 4 5 6 7 8 9 10 11 12 13 14 15 16 17
373
FTUS41 KILN 101501 AAB
TAFILN
TAF AMD
KILN 101501Z 1015/1112 26014G20KT 5SM -SHSN BKN025 OVC035
      TEMPO 1015/1018 2SM -SHSN
     FM101800 28016G22KT P6SM -SHSN BKN025 OVC035
     FM110000 27010KT P6SM BKN035=

USA.gov is the U.S. government's official web portal to all federal, state and local government web resources and services.